createdAt,value
2023-01-13T00:01:14.583Z,100.00
2023-01-13T00:03:41.420Z,100.00
2023-01-13T00:06:09.807Z,100.00
2023-01-13T00:08:36.277Z,100.00
2023-01-13T00:11:02.744Z,100.00
2023-01-13T00:13:29.457Z,99.27
2023-01-13T00:16:00.579Z,100.00
2023-01-13T00:18:27.440Z,100.00
2023-01-13T00:21:07.137Z,100.00
2023-01-13T00:23:34.989Z,99.68
2023-01-13T00:26:05.327Z,99.77
2023-01-13T00:28:32.125Z,99.45
2023-01-13T00:31:09.448Z,100.00
2023-01-13T00:33:36.715Z,100.00
2023-01-13T00:36:05.350Z,100.00
2023-01-13T00:39:36.070Z,100.00
2023-01-13T00:41:25.846Z,100.00
2023-01-13T00:43:52.309Z,100.00
2023-01-13T00:46:21.519Z,100.00
2023-01-13T00:48:48.697Z,100.00
2023-01-13T00:51:18.317Z,100.00
2023-01-13T00:53:47.623Z,100.00
2023-01-13T00:56:19.959Z,100.00
2023-01-13T00:58:52.177Z,100.00
2023-01-13T01:01:21.663Z,100.00
2023-01-13T01:03:49.681Z,100.00
2023-01-13T01:06:19.312Z,100.00
2023-01-13T01:08:46.015Z,100.00
2023-01-13T01:11:15.028Z,100.00
2023-01-13T01:13:42.773Z,100.00
2023-01-13T01:16:12.235Z,100.00
2023-01-13T01:18:41.815Z,100.00
2023-01-13T01:21:09.509Z,100.00
2023-01-13T01:23:37.326Z,100.00
2023-01-13T01:26:08.882Z,100.00
2023-01-13T01:28:35.463Z,100.00
2023-01-13T01:31:17.379Z,100.00
2023-01-13T01:33:44.309Z,100.00
2023-01-13T01:36:16.582Z,100.00
2023-01-13T01:38:43.761Z,100.00
2023-01-13T01:41:14.809Z,100.00
2023-01-13T01:44:06.803Z,100.00
2023-01-13T01:46:41.673Z,100.00
2023-01-13T01:49:32.906Z,100.00
2023-01-13T01:51:59.299Z,100.00
2023-01-13T01:54:55.139Z,100.00
2023-01-13T01:57:30.709Z,100.00
2023-01-13T01:59:59.163Z,100.00
2023-01-13T02:02:25.718Z,100.00
2023-01-13T02:04:55.001Z,100.00
2023-01-13T02:07:27.198Z,100.00
2023-01-13T02:09:56.244Z,100.00
2023-01-13T02:12:30.106Z,100.00
2023-01-13T02:15:00.996Z,100.00
2023-01-13T02:17:58.395Z,100.00
2023-01-13T02:20:39.842Z,100.00
2023-01-13T02:23:48.242Z,100.00
2023-01-13T02:26:31.198Z,100.00
2023-01-13T02:29:35.745Z,100.00
2023-01-13T02:32:14.960Z,100.00
2023-01-13T02:34:53.417Z,100.00
2023-01-13T02:37:28.804Z,100.00
2023-01-13T02:40:21.389Z,100.00
2023-01-13T02:43:23.639Z,100.00
2023-01-13T02:45:59.227Z,100.00
2023-01-13T02:48:28.539Z,100.00
2023-01-13T02:51:05.088Z,99.62
2023-01-13T02:53:50.957Z,100.00
2023-01-13T02:56:18.138Z,100.00
2023-01-13T02:58:47.080Z,100.00
2023-01-13T03:01:13.875Z,100.00
2023-01-13T03:03:40.331Z,100.00
2023-01-13T03:06:44.389Z,98.53
2023-01-13T03:09:29.818Z,97.86
2023-01-13T03:12:10.507Z,98.04
2023-01-13T03:14:46.434Z,97.27
2023-01-13T03:17:40.805Z,98.06
2023-01-13T03:20:16.597Z,98.00
2023-01-13T03:23:00.480Z,97.43
2023-01-13T03:25:34.112Z,96.65
2023-01-13T03:28:06.747Z,98.00
2023-01-13T03:30:40.911Z,98.24
2023-01-13T03:33:19.461Z,99.48
2023-01-13T03:35:52.816Z,99.07
2023-01-13T03:38:25.428Z,98.19
2023-01-13T03:40:59.372Z,97.62
2023-01-13T03:44:09.043Z,99.01
2023-01-13T03:47:10.320Z,97.27
2023-01-13T03:49:44.741Z,97.92
2023-01-13T03:52:18.744Z,97.96
2023-01-13T03:54:51.173Z,97.62
2023-01-13T03:57:22.657Z,97.39
2023-01-13T03:59:52.846Z,96.01
2023-01-13T04:02:32.641Z,97.52
2023-01-13T04:05:03.056Z,96.72
2023-01-13T04:08:06.576Z,96.37
2023-01-13T04:10:40.851Z,98.16
2023-01-13T04:13:12.325Z,97.75
2023-01-13T04:15:44.194Z,97.50
2023-01-13T04:18:18.139Z,97.11
2023-01-13T04:20:47.236Z,97.64
2023-01-13T04:23:13.994Z,96.21
2023-01-13T04:25:41.591Z,96.77
2023-01-13T04:28:08.300Z,97.07
2023-01-13T04:30:34.822Z,97.55
2023-01-13T04:33:01.318Z,95.11
2023-01-13T04:35:27.787Z,95.03
2023-01-13T04:37:54.184Z,94.94
2023-01-13T04:40:20.686Z,93.76
2023-01-13T04:42:47.156Z,92.80
2023-01-13T04:45:14.323Z,93.08
2023-01-13T04:47:41.934Z,92.78
2023-01-13T04:50:10.197Z,90.84
2023-01-13T04:52:36.654Z,89.78
2023-01-13T04:55:03.143Z,91.86
2023-01-13T04:57:29.862Z,91.44
2023-01-13T04:59:56.446Z,90.73
2023-01-13T05:02:22.874Z,90.67
2023-01-13T05:04:49.478Z,91.22
2023-01-13T05:07:16.643Z,90.00
2023-01-13T05:09:43.099Z,89.43
2023-01-13T05:12:28.533Z,90.01
2023-01-13T05:15:14.024Z,88.94
2023-01-13T05:17:41.420Z,89.81
2023-01-13T05:20:08.800Z,89.68
2023-01-13T05:22:53.601Z,89.48
2023-01-13T05:25:23.263Z,89.69
2023-01-13T05:27:50.659Z,89.78
2023-01-13T05:30:17.404Z,89.49
2023-01-13T05:32:43.880Z,89.58
2023-01-13T05:35:10.535Z,90.16
2023-01-13T05:37:36.980Z,89.80
2023-01-13T05:40:22.633Z,89.83
2023-01-13T05:43:18.473Z,90.14
2023-01-13T05:45:45.357Z,90.13
2023-01-13T05:48:11.886Z,89.87
2023-01-13T05:50:38.291Z,90.88
2023-01-13T05:53:05.139Z,90.45
2023-01-13T05:55:32.080Z,90.36
2023-01-13T05:57:58.551Z,90.16
2023-01-13T06:00:25.062Z,90.52
2023-01-13T06:02:52.262Z,91.01
2023-01-13T06:05:18.691Z,90.80
2023-01-13T06:07:45.087Z,90.58
2023-01-13T06:10:11.831Z,91.04
2023-01-13T06:12:38.648Z,91.14
2023-01-13T06:15:05.877Z,90.71
2023-01-13T06:17:32.291Z,90.61
2023-01-13T06:19:58.757Z,90.10
2023-01-13T06:22:35.669Z,90.44
2023-01-13T06:25:03.345Z,90.25
2023-01-13T06:27:30.390Z,90.46
2023-01-13T06:29:57.261Z,90.31
2023-01-13T06:32:32.489Z,89.33
2023-01-13T06:35:05.463Z,89.06
2023-01-13T06:37:34.528Z,89.02
2023-01-13T06:40:03.841Z,89.62
2023-01-13T06:42:52.827Z,89.02
2023-01-13T06:45:19.469Z,88.31
2023-01-13T06:47:45.922Z,88.12
2023-01-13T06:50:12.886Z,87.94
2023-01-13T06:52:39.344Z,87.65
2023-01-13T06:55:06.188Z,87.88
2023-01-13T06:57:32.679Z,87.77
2023-01-13T06:59:59.125Z,88.00
2023-01-13T07:02:26.065Z,87.97
2023-01-13T07:04:52.591Z,88.07
2023-01-13T07:07:19.010Z,88.57
2023-01-13T07:09:45.427Z,89.02
2023-01-13T07:12:12.181Z,88.70
2023-01-13T07:14:57.255Z,89.03
2023-01-13T07:17:25.360Z,89.87
2023-01-13T07:19:53.169Z,89.35
2023-01-13T07:22:19.786Z,89.24
2023-01-13T07:24:46.264Z,88.48
2023-01-13T07:27:12.688Z,88.63
2023-01-13T07:29:39.711Z,87.95
2023-01-13T07:32:07.016Z,87.70
2023-01-13T07:34:33.659Z,87.08
2023-01-13T07:37:00.623Z,87.54
2023-01-13T07:39:27.119Z,87.66
2023-01-13T07:42:12.259Z,87.58
2023-01-13T07:44:38.686Z,87.28
2023-01-13T07:47:06.034Z,87.08
2023-01-13T07:49:33.193Z,86.27
2023-01-13T07:51:59.690Z,86.15
2023-01-13T07:54:39.658Z,84.91
2023-01-13T07:57:07.435Z,84.87
2023-01-13T07:59:33.842Z,85.17
2023-01-13T08:02:00.565Z,85.03
2023-01-13T08:04:27.124Z,83.10
2023-01-13T08:06:53.552Z,84.58
2023-01-13T08:09:19.970Z,83.94
2023-01-13T08:12:06.369Z,84.10
2023-01-13T08:14:32.770Z,83.70
2023-01-13T08:16:59.205Z,84.31
2023-01-13T08:19:25.688Z,83.35
2023-01-13T08:21:52.102Z,83.98
2023-01-13T08:24:18.503Z,84.18
2023-01-13T08:26:44.929Z,83.87
2023-01-13T08:29:14.588Z,83.87
2023-01-13T08:31:41.231Z,84.14
2023-01-13T08:34:07.661Z,84.13
2023-01-13T08:36:34.067Z,84.23
2023-01-13T08:39:00.526Z,84.81
2023-01-13T08:41:45.565Z,85.89
2023-01-13T08:44:11.950Z,86.12
2023-01-13T08:46:38.398Z,86.94
2023-01-13T08:49:05.414Z,87.70
2023-01-13T08:51:31.851Z,87.95
2023-01-13T08:53:58.288Z,88.47
2023-01-13T08:56:24.720Z,88.81
2023-01-13T08:58:52.522Z,88.96
2023-01-13T09:01:22.811Z,89.50
2023-01-13T09:03:49.451Z,90.03
2023-01-13T09:06:15.867Z,90.60
2023-01-13T09:08:43.436Z,91.18
2023-01-13T09:11:37.358Z,91.50
2023-01-13T09:14:03.984Z,91.80
2023-01-13T09:16:30.404Z,91.34
2023-01-13T09:18:56.793Z,91.52
2023-01-13T09:21:23.309Z,91.70
2023-01-13T09:23:49.721Z,91.75
2023-01-13T09:26:20.995Z,91.76
2023-01-13T09:28:47.848Z,92.43
2023-01-13T09:31:14.519Z,92.01
2023-01-13T09:33:59.729Z,92.48
2023-01-13T09:36:26.143Z,91.88
2023-01-13T09:38:52.594Z,92.52
2023-01-13T09:41:43.438Z,92.52
2023-01-13T09:44:16.660Z,91.96
2023-01-13T09:46:58.220Z,91.83
2023-01-13T09:49:56.684Z,91.87
2023-01-13T09:52:26.704Z,91.90
2023-01-13T09:55:01.583Z,90.99
2023-01-13T09:57:32.446Z,90.77
2023-01-13T09:59:59.090Z,90.90
2023-01-13T10:02:42.261Z,90.82
2023-01-13T10:05:14.364Z,90.86
2023-01-13T10:07:48.321Z,89.74
2023-01-13T10:10:34.060Z,90.00
2023-01-13T10:13:20.471Z,91.11
2023-01-13T10:16:19.304Z,91.78
2023-01-13T10:19:11.245Z,91.38
2023-01-13T10:21:40.587Z,91.76
2023-01-13T10:24:17.153Z,92.11
2023-01-13T10:27:10.011Z,92.08
2023-01-13T10:29:36.947Z,92.37
2023-01-13T10:32:04.022Z,92.71
2023-01-13T10:34:30.620Z,92.13
2023-01-13T10:37:03.234Z,90.96
2023-01-13T10:39:40.705Z,91.47
2023-01-13T10:42:13.950Z,91.22
2023-01-13T10:44:51.462Z,90.93
2023-01-13T10:47:36.215Z,91.61
2023-01-13T10:50:09.678Z,90.99
2023-01-13T10:52:42.826Z,91.64
2023-01-13T10:55:38.776Z,91.87
2023-01-13T10:58:13.450Z,91.75
2023-01-13T11:00:40.223Z,91.36
2023-01-13T11:03:16.753Z,90.08
2023-01-13T11:05:54.488Z,90.59
2023-01-13T11:08:24.783Z,91.00
2023-01-13T11:10:57.850Z,89.89
2023-01-13T11:13:35.845Z,89.61
2023-01-13T11:16:12.709Z,89.44
2023-01-13T11:19:12.194Z,88.92
2023-01-13T11:21:50.383Z,89.35
2023-01-13T11:24:21.068Z,89.37
2023-01-13T11:26:55.489Z,89.44
2023-01-13T11:29:36.888Z,89.05
2023-01-13T11:32:14.602Z,88.64
2023-01-13T11:34:45.034Z,86.63
2023-01-13T11:37:28.220Z,85.61
2023-01-13T11:39:59.437Z,85.28
2023-01-13T11:42:32.036Z,85.10
2023-01-13T11:45:02.184Z,85.13
2023-01-13T11:47:29.283Z,84.60
2023-01-13T11:49:56.210Z,84.56
2023-01-13T11:52:37.547Z,83.26
2023-01-13T11:55:07.062Z,82.98
2023-01-13T11:57:52.317Z,83.46
2023-01-13T12:00:56.164Z,83.01
2023-01-13T12:03:48.879Z,81.97
2023-01-13T12:06:34.028Z,81.18
2023-01-13T12:09:37.068Z,82.17
2023-01-13T12:12:22.751Z,81.90
2023-01-13T12:15:02.878Z,82.79
2023-01-13T12:17:55.225Z,82.19
2023-01-13T12:20:43.033Z,81.44
2023-01-13T12:23:35.394Z,82.27
2023-01-13T12:26:08.283Z,81.87
2023-01-13T12:28:56.826Z,81.17
2023-01-13T12:31:24.927Z,80.92
2023-01-13T12:34:15.347Z,80.75
2023-01-13T12:37:09.231Z,81.59
2023-01-13T12:39:54.310Z,81.07
2023-01-13T12:42:50.407Z,81.15
2023-01-13T12:45:20.483Z,80.24
2023-01-13T12:47:47.165Z,79.93
2023-01-13T12:50:22.727Z,79.68
2023-01-13T12:53:00.074Z,79.62
2023-01-13T12:55:28.565Z,80.32
2023-01-13T12:57:56.314Z,80.33
2023-01-13T13:00:23.289Z,79.52
2023-01-13T13:03:23.258Z,79.52
2023-01-13T13:06:28.165Z,78.70
2023-01-13T13:09:06.769Z,78.57
2023-01-13T13:12:03.585Z,78.95
2023-01-13T13:14:50.268Z,79.28
2023-01-13T13:17:19.762Z,78.20
2023-01-13T13:19:48.784Z,77.95
2023-01-13T13:22:20.601Z,78.24
2023-01-13T13:24:56.180Z,78.76
2023-01-13T13:27:28.209Z,77.37
2023-01-13T13:30:27.978Z,78.37
2023-01-13T13:33:00.311Z,77.10
2023-01-13T13:35:52.353Z,76.91
2023-01-13T13:39:12.569Z,76.41
2023-01-13T13:42:03.598Z,75.89
2023-01-13T13:44:51.636Z,75.41
2023-01-13T13:47:19.354Z,77.03
2023-01-13T13:49:54.429Z,77.33
2023-01-13T13:52:25.775Z,76.73
2023-01-13T13:54:57.218Z,76.52
2023-01-13T13:57:34.446Z,76.03
2023-01-13T14:00:06.398Z,76.45
2023-01-13T14:02:37.217Z,76.15
2023-01-13T14:05:30.747Z,76.82
2023-01-13T14:08:01.671Z,77.11
2023-01-13T14:10:32.554Z,77.81
2023-01-13T14:13:00.908Z,77.51
2023-01-13T14:15:31.433Z,77.45
2023-01-13T14:18:00.647Z,78.46
2023-01-13T14:20:28.702Z,78.19
2023-01-13T14:23:01.283Z,77.84
2023-01-13T14:25:34.451Z,77.91
2023-01-13T14:28:14.008Z,77.72
2023-01-13T14:30:41.868Z,77.48
2023-01-13T14:33:17.007Z,78.42
2023-01-13T14:36:05.384Z,78.75
2023-01-13T14:38:31.921Z,78.14
2023-01-13T14:41:15.823Z,78.21
2023-01-13T14:43:44.318Z,78.39
2023-01-13T14:46:11.619Z,79.22
2023-01-13T14:48:39.466Z,79.77
2023-01-13T14:51:10.949Z,80.40
2023-01-13T14:53:46.685Z,80.12
2023-01-13T14:56:47.360Z,80.55
2023-01-13T14:59:32.905Z,80.14
2023-01-13T15:02:00.129Z,79.58
2023-01-13T15:04:32.306Z,79.88
2023-01-13T15:07:00.096Z,80.37
2023-01-13T15:09:33.106Z,80.16
2023-01-13T15:12:00.430Z,79.48
2023-01-13T15:14:32.269Z,79.50
2023-01-13T15:16:58.669Z,79.72
2023-01-13T15:19:25.127Z,79.40
2023-01-13T15:21:51.777Z,79.71
2023-01-13T15:24:18.203Z,78.92
2023-01-13T15:26:44.623Z,79.42
2023-01-13T15:29:15.201Z,79.96
2023-01-13T15:31:42.268Z,78.44
2023-01-13T15:34:08.679Z,77.68
2023-01-13T15:36:37.224Z,78.74
2023-01-13T15:39:04.083Z,78.52
2023-01-13T15:41:49.281Z,79.36
2023-01-13T15:44:35.288Z,78.18
2023-01-13T15:47:04.970Z,78.70
2023-01-13T15:49:37.668Z,78.69
2023-01-13T15:52:10.084Z,79.66
2023-01-13T15:54:36.608Z,79.88
2023-01-13T15:57:03.151Z,79.73
2023-01-13T15:59:29.648Z,79.82
2023-01-13T16:01:56.123Z,79.51
2023-01-13T16:04:22.715Z,79.99
2023-01-13T16:06:49.297Z,79.77
2023-01-13T16:09:16.858Z,79.56
2023-01-13T16:11:43.397Z,79.54
2023-01-13T16:14:09.991Z,80.37
2023-01-13T16:16:37.348Z,80.59
2023-01-13T16:19:03.976Z,80.96
2023-01-13T16:21:30.465Z,80.73
2023-01-13T16:23:56.868Z,80.87
2023-01-13T16:26:26.229Z,80.55
2023-01-13T16:28:55.010Z,80.61
2023-01-13T16:31:26.067Z,80.98
2023-01-13T16:33:53.119Z,81.97
2023-01-13T16:36:21.525Z,82.09
2023-01-13T16:38:50.332Z,81.41
2023-01-13T16:41:17.177Z,82.70
2023-01-13T16:43:43.974Z,81.77
2023-01-13T16:46:21.487Z,81.54
2023-01-13T16:48:48.760Z,82.35
2023-01-13T16:51:15.401Z,83.57
2023-01-13T16:53:41.977Z,85.29
2023-01-13T16:56:20.824Z,87.35
2023-01-13T16:58:47.460Z,88.71
2023-01-13T17:01:24.737Z,90.78
2023-01-13T17:03:52.118Z,91.11
2023-01-13T17:06:22.707Z,91.82
2023-01-13T17:08:49.323Z,91.90
2023-01-13T17:11:15.896Z,92.52
2023-01-13T17:13:42.369Z,92.50
2023-01-13T17:16:22.674Z,92.84
2023-01-13T17:18:49.275Z,93.18
2023-01-13T17:21:16.731Z,93.43
2023-01-13T17:23:43.315Z,92.93
2023-01-13T17:26:27.443Z,93.14
2023-01-13T17:28:54.016Z,93.20
2023-01-13T17:31:20.494Z,93.75
2023-01-13T17:33:47.039Z,93.29
2023-01-13T17:36:13.503Z,92.68
2023-01-13T17:38:39.930Z,93.26
2023-01-13T17:41:06.395Z,92.88
2023-01-13T17:43:32.934Z,93.31
2023-01-13T17:45:59.709Z,93.28
2023-01-13T17:48:26.700Z,93.31
2023-01-13T17:50:53.714Z,92.28
2023-01-13T17:53:20.920Z,92.52
2023-01-13T17:55:55.155Z,92.74
2023-01-13T17:58:22.431Z,92.78
2023-01-13T18:00:49.172Z,92.60
2023-01-13T18:03:17.625Z,92.86
2023-01-13T18:05:45.190Z,93.00
2023-01-13T18:08:11.685Z,93.01
2023-01-13T18:10:38.242Z,93.00
2023-01-13T18:13:05.218Z,93.13
2023-01-13T18:15:31.900Z,93.37
2023-01-13T18:17:58.467Z,93.62
2023-01-13T18:20:43.375Z,93.91
2023-01-13T18:23:35.295Z,93.60
2023-01-13T18:26:34.772Z,93.86
2023-01-13T18:29:01.860Z,94.24
2023-01-13T18:31:28.355Z,94.51
2023-01-13T18:33:54.904Z,94.30
2023-01-13T18:36:21.591Z,95.08
2023-01-13T18:38:51.811Z,95.06
2023-01-13T18:41:36.940Z,95.43
2023-01-13T18:44:04.026Z,95.13
2023-01-13T18:46:30.503Z,94.89
2023-01-13T18:48:57.047Z,94.67
2023-01-13T18:51:23.544Z,94.44
2023-01-13T18:53:50.069Z,94.19
2023-01-13T18:56:17.021Z,94.00
2023-01-13T18:58:50.944Z,94.03
2023-01-13T19:01:25.709Z,92.70
2023-01-13T19:04:02.578Z,92.45
2023-01-13T19:06:33.801Z,92.66
2023-01-13T19:09:08.264Z,92.52
2023-01-13T19:11:36.135Z,92.85
2023-01-13T19:14:03.731Z,92.85
2023-01-13T19:16:30.339Z,92.99
2023-01-13T19:18:56.760Z,92.76
2023-01-13T19:21:24.178Z,92.92
2023-01-13T19:23:55.853Z,93.12
2023-01-13T19:26:22.393Z,93.36
2023-01-13T19:28:50.397Z,93.54
2023-01-13T19:31:17.200Z,93.64
2023-01-13T19:33:43.710Z,93.60
2023-01-13T19:36:11.280Z,93.78
2023-01-13T19:38:38.039Z,93.48
2023-01-13T19:41:27.301Z,93.70
2023-01-13T19:44:13.302Z,93.79
2023-01-13T19:46:41.147Z,93.53
2023-01-13T19:49:08.144Z,93.87
2023-01-13T19:51:34.687Z,93.45
2023-01-13T19:54:01.550Z,93.93
2023-01-13T19:56:29.442Z,93.28
2023-01-13T19:58:56.987Z,93.56
2023-01-13T20:01:30.333Z,93.05
2023-01-13T20:04:02.819Z,93.06
2023-01-13T20:06:31.635Z,92.49
2023-01-13T20:08:58.503Z,92.67
2023-01-13T20:11:31.487Z,92.78
2023-01-13T20:13:59.602Z,92.37
2023-01-13T20:16:30.366Z,92.50
2023-01-13T20:18:57.021Z,92.03
2023-01-13T20:21:23.705Z,92.06
2023-01-13T20:23:51.726Z,92.38
2023-01-13T20:26:19.392Z,92.09
2023-01-13T20:28:47.295Z,92.59
2023-01-13T20:31:14.774Z,92.39
2023-01-13T20:33:42.330Z,91.36
2023-01-13T20:36:16.704Z,91.73
2023-01-13T20:38:43.190Z,92.04
2023-01-13T20:41:28.456Z,91.81
2023-01-13T20:43:55.122Z,91.79
2023-01-13T20:46:22.737Z,92.13
2023-01-13T20:48:49.607Z,92.06
2023-01-13T20:51:16.300Z,93.29
2023-01-13T20:53:42.958Z,93.32
2023-01-13T20:56:09.804Z,92.92
2023-01-13T20:58:39.269Z,92.81
2023-01-13T21:01:06.173Z,92.85
2023-01-13T21:03:33.186Z,92.68
2023-01-13T21:05:59.767Z,92.88
2023-01-13T21:08:26.368Z,92.47
2023-01-13T21:10:59.613Z,91.84
2023-01-13T21:13:44.807Z,92.33
2023-01-13T21:16:11.496Z,91.87
2023-01-13T21:18:56.631Z,91.15
2023-01-13T21:21:23.169Z,91.93
2023-01-13T21:23:52.991Z,91.80
2023-01-13T21:26:22.670Z,91.25
2023-01-13T21:28:50.241Z,91.57
2023-01-13T21:31:17.778Z,91.76
2023-01-13T21:33:47.565Z,91.45
2023-01-13T21:36:15.536Z,91.33
2023-01-13T21:38:42.264Z,91.00
2023-01-13T21:41:09.261Z,91.13
2023-01-13T21:43:55.812Z,91.38
2023-01-13T21:46:42.216Z,91.26
2023-01-13T21:49:08.785Z,91.36
2023-01-13T21:51:35.676Z,91.14
2023-01-13T21:54:02.115Z,90.79
2023-01-13T21:56:28.515Z,90.44
2023-01-13T21:58:57.805Z,90.26
2023-01-13T22:01:24.397Z,90.20
2023-01-13T22:04:09.555Z,90.47
2023-01-13T22:06:36.057Z,90.10
2023-01-13T22:09:02.864Z,89.98
2023-01-13T22:11:29.366Z,90.09
2023-01-13T22:14:11.317Z,89.96
2023-01-13T22:16:41.765Z,89.92
2023-01-13T22:19:09.860Z,89.27
2023-01-13T22:21:36.750Z,89.34
2023-01-13T22:24:03.396Z,88.44
2023-01-13T22:26:29.906Z,88.49
2023-01-13T22:28:56.662Z,88.53
2023-01-13T22:31:23.842Z,88.56
2023-01-13T22:33:55.369Z,88.51
2023-01-13T22:36:24.157Z,88.59
2023-01-13T22:38:56.264Z,88.24
2023-01-13T22:41:23.312Z,88.91
2023-01-13T22:43:49.763Z,88.61
2023-01-13T22:46:17.124Z,88.78
2023-01-13T22:48:44.556Z,88.46
2023-01-13T22:51:13.418Z,87.97
2023-01-13T22:53:40.899Z,86.92
2023-01-13T22:56:09.858Z,86.94
2023-01-13T22:58:36.337Z,86.99
2023-01-13T23:01:10.217Z,87.10
2023-01-13T23:03:36.983Z,86.94
2023-01-13T23:06:03.581Z,87.01
2023-01-13T23:08:30.054Z,87.15
2023-01-13T23:11:10.897Z,87.22
2023-01-13T23:13:40.247Z,87.57
2023-01-13T23:16:15.681Z,87.26
2023-01-13T23:18:42.723Z,87.26
2023-01-13T23:21:14.719Z,87.06
2023-01-13T23:23:41.979Z,87.22
2023-01-13T23:26:09.197Z,86.69
2023-01-13T23:28:36.860Z,86.38
2023-01-13T23:31:07.956Z,86.02
2023-01-13T23:33:37.682Z,86.39
2023-01-13T23:36:06.768Z,86.64
2023-01-13T23:38:33.539Z,86.24
2023-01-13T23:41:00.439Z,86.24
2023-01-13T23:43:27.222Z,86.51
2023-01-13T23:46:02.275Z,86.42
2023-01-13T23:48:28.926Z,85.51
2023-01-13T23:51:04.552Z,86.26
2023-01-13T23:53:33.486Z,85.65
2023-01-13T23:56:01.680Z,85.71
2023-01-13T23:58:29.271Z,85.96
